createdAt,value
2024-04-09T00:00:29.946Z,17.1
2024-04-09T00:01:32.482Z,17.1
2024-04-09T00:02:34.549Z,17.1
2024-04-09T00:03:35.992Z,17.1
2024-04-09T00:04:38.323Z,17.1
2024-04-09T00:05:39.835Z,17.1
2024-04-09T00:06:41.895Z,17
2024-04-09T00:07:43.858Z,17
2024-04-09T00:08:45.836Z,17
2024-04-09T00:09:48.271Z,17
2024-04-09T00:10:50.026Z,17.1
2024-04-09T00:11:51.866Z,17.2
2024-04-09T00:12:54.180Z,17.4
2024-04-09T00:13:56.160Z,17.5
2024-04-09T00:14:57.888Z,17.7
2024-04-09T00:16:00.257Z,17.8
2024-04-09T00:17:01.867Z,18
2024-04-09T00:18:03.990Z,18.1
2024-04-09T00:19:06.491Z,18.3
2024-04-09T00:20:07.833Z,18.5
2024-04-09T00:21:09.960Z,18.7
2024-04-09T00:22:12.291Z,18.8
2024-04-09T00:23:14.359Z,18.8
2024-04-09T00:24:15.816Z,18.9
2024-04-09T00:25:17.840Z,18.9
2024-04-09T00:26:19.839Z,18.9
2024-04-09T00:27:21.973Z,19
2024-04-09T00:28:23.818Z,19.1
2024-04-09T00:29:25.805Z,19.1
2024-04-09T00:30:27.854Z,19.1
2024-04-09T00:31:29.800Z,19.1
2024-04-09T00:32:31.869Z,19
2024-04-09T00:33:34.485Z,19
2024-04-09T00:34:35.922Z,19
2024-04-09T00:35:37.819Z,19
2024-04-09T00:36:39.878Z,19
2024-04-09T00:37:41.803Z,19
2024-04-09T00:38:43.794Z,19
2024-04-09T00:39:45.861Z,19
2024-04-09T00:40:47.785Z,19.1
2024-04-09T00:41:50.403Z,19.1
2024-04-09T00:42:51.785Z,19.2
2024-04-09T00:43:54.202Z,19.3
2024-04-09T00:44:55.834Z,19.4
2024-04-09T00:45:58.327Z,19.4
2024-04-09T00:46:59.790Z,19.4
2024-04-09T00:48:02.142Z,19.4
2024-04-09T00:49:04.014Z,19.4
2024-04-09T00:50:05.959Z,19.3
2024-04-09T00:51:08.016Z,19.3
2024-04-09T00:52:09.776Z,19.3
2024-04-09T00:53:12.699Z,19.3
2024-04-09T00:54:14.153Z,19.2
2024-04-09T00:55:15.952Z,19.1
2024-04-09T00:56:17.950Z,19.1
2024-04-09T00:57:19.822Z,19
2024-04-09T00:58:21.792Z,19
2024-04-09T00:59:23.769Z,18.9
2024-04-09T01:00:25.905Z,18.9
2024-04-09T01:01:27.822Z,18.9
2024-04-09T01:02:29.821Z,18.9
2024-04-09T01:03:31.916Z,18.9
2024-04-09T01:04:33.887Z,19
2024-04-09T01:05:35.761Z,18.9
2024-04-09T01:06:37.782Z,18.9
2024-04-09T01:07:39.785Z,18.9
2024-04-09T01:08:41.758Z,19
2024-04-09T01:09:43.767Z,19
2024-04-09T01:10:45.764Z,18.9
2024-04-09T01:11:47.752Z,18.9
2024-04-09T01:12:49.783Z,18.9
2024-04-09T01:13:51.753Z,18.8
2024-04-09T01:14:53.782Z,18.9
2024-04-09T01:15:55.747Z,18.9
2024-04-09T01:16:57.817Z,18.8
2024-04-09T01:17:59.879Z,18.8
2024-04-09T01:19:01.818Z,18.8
2024-04-09T01:20:03.768Z,18.8
2024-04-09T01:21:05.788Z,18.7
2024-04-09T01:22:07.769Z,18.6
2024-04-09T01:23:09.741Z,18.5
2024-04-09T01:24:11.812Z,18.3
2024-04-09T01:25:13.739Z,18.2
2024-04-09T01:26:15.771Z,18
2024-04-09T01:27:17.800Z,17.9
2024-04-09T01:28:19.750Z,17.8
2024-04-09T01:29:21.735Z,17.6
2024-04-09T01:30:23.804Z,17.5
2024-04-09T01:31:25.753Z,17.5
2024-04-09T01:32:27.821Z,17.3
2024-04-09T01:33:29.877Z,17.2
2024-04-09T01:34:31.735Z,17.1
2024-04-09T01:35:33.800Z,17
2024-04-09T01:36:35.946Z,16.9
2024-04-09T01:37:37.730Z,16.8
2024-04-09T01:38:39.724Z,16.7
2024-04-09T01:39:41.858Z,16.6
2024-04-09T01:40:43.749Z,16.4
2024-04-09T01:41:45.728Z,16.4
2024-04-09T01:42:47.718Z,16.2
2024-04-09T01:43:49.724Z,16.2
2024-04-09T01:44:51.747Z,16.1
2024-04-09T01:45:53.786Z,16
2024-04-09T01:46:55.732Z,16
2024-04-09T01:47:57.870Z,15.8
2024-04-09T01:48:59.751Z,15.8
2024-04-09T01:50:01.735Z,15.6
2024-04-09T01:51:03.746Z,15.6
2024-04-09T01:52:05.713Z,15.5
2024-04-09T01:53:07.720Z,15.4
2024-04-09T01:54:09.751Z,15.3
2024-04-09T01:55:11.729Z,15.2
2024-04-09T01:56:13.704Z,15.2
2024-04-09T01:57:15.716Z,15.1
2024-04-09T01:58:17.697Z,15.1
2024-04-09T01:59:19.725Z,15
2024-04-09T02:00:22.058Z,15
2024-04-09T02:01:23.707Z,15
2024-04-09T02:02:25.724Z,15
2024-04-09T02:03:27.774Z,15
2024-04-09T02:04:29.800Z,14.9
2024-04-09T02:05:31.698Z,14.9
2024-04-09T02:06:33.883Z,14.9
2024-04-09T02:07:35.692Z,14.8
2024-04-09T02:08:37.722Z,14.8
2024-04-09T02:09:39.701Z,14.7
2024-04-09T02:10:41.688Z,14.6
2024-04-09T02:11:43.756Z,14.6
2024-04-09T02:12:45.836Z,14.5
2024-04-09T02:13:47.706Z,14.5
2024-04-09T02:14:49.686Z,14.5
2024-04-09T02:15:51.679Z,14.4
2024-04-09T02:16:53.698Z,14.4
2024-04-09T02:17:55.818Z,14.3
2024-04-09T02:18:57.737Z,14.3
2024-04-09T02:19:59.693Z,14.3
2024-04-09T02:21:01.740Z,14.2
2024-04-09T02:22:03.758Z,14.1
2024-04-09T02:23:05.696Z,14.1
2024-04-09T02:24:07.740Z,14.1
2024-04-09T02:25:09.685Z,14.1
2024-04-09T02:26:11.667Z,14
2024-04-09T02:27:13.711Z,14
2024-04-09T02:28:15.666Z,14
2024-04-09T02:29:17.660Z,13.9
2024-04-09T02:30:19.698Z,13.9
2024-04-09T02:31:21.683Z,13.9
2024-04-09T02:32:23.687Z,13.9
2024-04-09T02:33:25.948Z,13.9
2024-04-09T02:34:27.673Z,13.9
2024-04-09T02:35:29.659Z,13.9
2024-04-09T02:36:31.774Z,13.9
2024-04-09T02:37:33.691Z,13.9
2024-04-09T02:38:35.663Z,13.9
2024-04-09T02:39:37.710Z,13.9
2024-04-09T02:40:39.653Z,13.9
2024-04-09T02:41:41.683Z,13.9
2024-04-09T02:42:43.683Z,13.9
2024-04-09T02:43:45.672Z,13.9
2024-04-09T02:44:47.653Z,13.9
2024-04-09T02:45:49.708Z,13.9
2024-04-09T02:46:51.739Z,13.8
2024-04-09T02:47:53.665Z,13.8
2024-04-09T02:48:55.656Z,13.8
2024-04-09T02:49:57.641Z,13.8
2024-04-09T02:50:59.723Z,13.8
2024-04-09T02:52:01.796Z,13.8
2024-04-09T02:53:03.671Z,13.7
2024-04-09T02:54:05.693Z,13.7
2024-04-09T02:55:07.678Z,13.7
2024-04-09T02:56:09.666Z,13.7
2024-04-09T02:57:11.813Z,13.7
2024-04-09T02:58:13.629Z,13.7
2024-04-09T02:59:15.664Z,13.6
2024-04-09T03:00:17.686Z,13.6
2024-04-09T03:01:19.646Z,13.6
2024-04-09T03:02:21.682Z,13.6
2024-04-09T03:03:23.656Z,13.5
2024-04-09T03:04:25.656Z,13.5
2024-04-09T03:05:27.661Z,13.5
2024-04-09T03:06:29.718Z,13.5
2024-04-09T03:07:31.622Z,13.5
2024-04-09T03:08:33.638Z,13.5
2024-04-09T03:09:35.751Z,13.5
2024-04-09T03:10:37.614Z,13.5
2024-04-09T03:11:39.620Z,13.5
2024-04-09T03:12:41.726Z,13.5
2024-04-09T03:13:43.896Z,13.4
2024-04-09T03:14:45.648Z,13.4
2024-04-09T03:15:47.745Z,13.4
2024-04-09T03:16:49.652Z,13.5
2024-04-09T03:17:51.642Z,13.5
2024-04-09T03:18:53.744Z,13.4
2024-04-09T03:19:55.634Z,13.4
2024-04-09T03:20:57.647Z,13.4
2024-04-09T03:21:59.599Z,13.3
2024-04-09T03:23:01.610Z,13.3
2024-04-09T03:24:03.722Z,13.3
2024-04-09T03:25:05.596Z,13.3
2024-04-09T03:26:07.625Z,13.4
2024-04-09T03:27:09.621Z,13.4
2024-04-09T03:28:11.627Z,13.4
2024-04-09T03:29:13.630Z,13.4
2024-04-09T03:30:15.590Z,13.4
2024-04-09T03:31:17.589Z,13.5
2024-04-09T03:32:19.640Z,13.5
2024-04-09T03:33:21.743Z,13.5
2024-04-09T03:34:23.723Z,13.5
2024-04-09T03:35:25.585Z,13.5
2024-04-09T03:36:27.610Z,13.5
2024-04-09T03:37:29.588Z,13.5
2024-04-09T03:38:31.695Z,13.5
2024-04-09T03:39:33.609Z,13.4
2024-04-09T03:40:35.584Z,13.4
2024-04-09T03:41:37.579Z,13.3
2024-04-09T03:42:39.628Z,13.3
2024-04-09T03:43:41.611Z,13.3
2024-04-09T03:44:43.584Z,13.3
2024-04-09T03:45:45.583Z,13.3
2024-04-09T03:46:47.574Z,13.2
2024-04-09T03:47:49.734Z,13.1
2024-04-09T03:48:51.758Z,13.1
2024-04-09T03:49:53.572Z,13.1
2024-04-09T03:50:55.591Z,13
2024-04-09T03:51:57.595Z,13
2024-04-09T03:52:59.604Z,12.9
2024-04-09T03:54:01.586Z,12.9
2024-04-09T03:55:03.581Z,12.8
2024-04-09T03:56:05.566Z,12.8
2024-04-09T03:57:07.623Z,12.8
2024-04-09T03:58:09.560Z,12.8
2024-04-09T03:59:11.579Z,12.7
2024-04-09T04:00:13.733Z,12.7
2024-04-09T04:01:15.606Z,12.7
2024-04-09T04:02:17.605Z,12.6
2024-04-09T04:03:19.575Z,12.6
2024-04-09T04:04:21.615Z,12.5
2024-04-09T04:05:23.582Z,12.5
2024-04-09T04:06:25.667Z,12.5
2024-04-09T04:07:27.551Z,12.5
2024-04-09T04:08:29.552Z,12.5
2024-04-09T04:09:31.571Z,12.5
2024-04-09T04:10:33.606Z,12.5
2024-04-09T04:11:35.633Z,12.5
2024-04-09T04:12:37.560Z,12.5
2024-04-09T04:13:39.551Z,12.5
2024-04-09T04:14:41.540Z,12.5
2024-04-09T04:15:43.600Z,12.5
2024-04-09T04:16:45.588Z,12.5
2024-04-09T04:17:47.567Z,12.5
2024-04-09T04:18:49.853Z,12.4
2024-04-09T04:19:51.536Z,12.5
2024-04-09T04:20:53.573Z,12.4
2024-04-09T04:21:55.575Z,12.4
2024-04-09T04:22:57.532Z,12.4
2024-04-09T04:23:59.553Z,12.3
2024-04-09T04:25:01.576Z,12.3
2024-04-09T04:26:03.621Z,12.3
2024-04-09T04:27:05.572Z,12.3
2024-04-09T04:28:07.528Z,12.3
2024-04-09T04:29:09.529Z,12.3
2024-04-09T04:30:11.579Z,12.3
2024-04-09T04:31:13.539Z,12.3
2024-04-09T04:32:15.538Z,12.3
2024-04-09T04:33:17.635Z,12.3
2024-04-09T04:34:19.619Z,12.3
2024-04-09T04:35:21.543Z,12.3
2024-04-09T04:36:23.596Z,12.3
2024-04-09T04:37:25.519Z,12.3
2024-04-09T04:38:27.513Z,12.3
2024-04-09T04:39:29.564Z,12.3
2024-04-09T04:40:31.511Z,12.3
2024-04-09T04:41:33.522Z,12.3
2024-04-09T04:42:35.529Z,12.3
2024-04-09T04:43:37.538Z,12.3
2024-04-09T04:44:39.533Z,12.4
2024-04-09T04:45:41.529Z,12.3
2024-04-09T04:46:43.500Z,12.3
2024-04-09T04:47:45.529Z,12.4
2024-04-09T04:48:47.592Z,12.4
2024-04-09T04:49:49.593Z,12.3
2024-04-09T04:50:51.493Z,12.3
2024-04-09T04:51:53.497Z,12.3
2024-04-09T04:52:55.502Z,12.3
2024-04-09T04:53:57.651Z,12.3
2024-04-09T04:54:59.513Z,12.2
2024-04-09T04:56:01.831Z,12.2
2024-04-09T04:57:03.524Z,12.2
2024-04-09T04:58:05.513Z,12.1
2024-04-09T04:59:07.509Z,12.1
2024-04-09T05:00:09.524Z,12.1
2024-04-09T05:01:11.503Z,12
2024-04-09T05:02:13.493Z,12.1
2024-04-09T05:03:15.649Z,12
2024-04-09T05:04:17.755Z,12
2024-04-09T05:05:19.924Z,12
2024-04-09T05:06:21.500Z,12
2024-04-09T05:07:23.501Z,12
2024-04-09T05:08:25.503Z,12
2024-04-09T05:09:27.495Z,12
2024-04-09T05:10:29.633Z,12
2024-04-09T05:11:31.487Z,12
2024-04-09T05:12:33.657Z,12
2024-04-09T05:13:35.470Z,11.9
2024-04-09T05:14:37.466Z,11.9
2024-04-09T05:15:39.627Z,11.9
2024-04-09T05:16:41.495Z,11.9
2024-04-09T05:17:43.569Z,11.9
2024-04-09T05:18:45.728Z,11.9
2024-04-09T05:19:47.531Z,11.8
2024-04-09T05:20:49.457Z,11.8
2024-04-09T05:21:51.486Z,11.8
2024-04-09T05:22:53.454Z,11.8
2024-04-09T05:23:55.456Z,11.8
2024-04-09T05:24:57.458Z,11.7
2024-04-09T05:25:59.544Z,11.7
2024-04-09T05:27:01.523Z,11.7
2024-04-09T05:28:03.473Z,11.8
2024-04-09T05:29:05.455Z,11.7
2024-04-09T05:30:08.092Z,11.7
2024-04-09T05:31:09.481Z,11.7
2024-04-09T05:32:11.450Z,11.7
2024-04-09T05:33:13.510Z,11.7
2024-04-09T05:34:15.504Z,11.7
2024-04-09T05:35:17.471Z,11.7
2024-04-09T05:36:19.460Z,11.7
2024-04-09T05:37:21.804Z,11.7
2024-04-09T05:38:23.442Z,11.7
2024-04-09T05:39:25.488Z,11.7
2024-04-09T05:40:28.259Z,11.6
2024-04-09T05:41:32.269Z,11.6
2024-04-09T05:42:32.921Z,11.6
2024-04-09T05:43:34.858Z,11.6
2024-04-09T05:44:36.849Z,11.5
2024-04-09T05:45:38.879Z,11.5
2024-04-09T05:46:40.838Z,11.5
2024-04-09T05:47:43.002Z,11.5
2024-04-09T05:48:44.914Z,11.5
2024-04-09T05:49:46.892Z,11.5
2024-04-09T05:50:48.835Z,11.5
2024-04-09T05:51:50.837Z,11.5
2024-04-09T05:52:52.823Z,11.5
2024-04-09T05:53:54.827Z,11.5
2024-04-09T05:54:56.846Z,11.5
2024-04-09T05:55:58.823Z,11.5
2024-04-09T05:57:00.850Z,11.5
2024-04-09T05:58:02.819Z,11.5
2024-04-09T05:59:04.860Z,11.5
2024-04-09T06:00:06.896Z,11.5
2024-04-09T06:01:08.845Z,11.5
2024-04-09T06:02:10.838Z,11.5
2024-04-09T06:03:12.892Z,11.5
2024-04-09T06:04:16.701Z,11.5
2024-04-09T06:05:18.431Z,11.6
2024-04-09T06:06:20.063Z,11.5
2024-04-09T06:07:22.040Z,11.6
2024-04-09T06:08:24.074Z,11.5
2024-04-09T06:09:26.097Z,11.5
2024-04-09T06:10:28.035Z,11.5
2024-04-09T06:11:31.803Z,11.5
2024-04-09T06:12:33.690Z,11.5
2024-04-09T06:13:35.679Z,11.5
2024-04-09T06:14:37.662Z,11.5
2024-04-09T06:15:39.736Z,11.5
2024-04-09T06:16:41.650Z,11.5
2024-04-09T06:17:43.758Z,11.4
2024-04-09T06:18:45.742Z,11.4
2024-04-09T06:19:47.667Z,11.4
2024-04-09T06:20:49.647Z,11.4
2024-04-09T06:21:51.645Z,11.4
2024-04-09T06:22:53.680Z,11.4
2024-04-09T06:23:55.643Z,11.4
2024-04-09T06:24:57.645Z,11.4
2024-04-09T06:25:59.658Z,11.4
2024-04-09T06:27:01.667Z,11.4
2024-04-09T06:28:03.662Z,11.5
2024-04-09T06:29:05.645Z,11.5
2024-04-09T06:30:07.749Z,11.5
2024-04-09T06:31:09.633Z,11.5
2024-04-09T06:32:11.709Z,11.5
2024-04-09T06:33:15.901Z,11.5
2024-04-09T06:34:17.196Z,11.5
2024-04-09T06:35:19.118Z,11.5
2024-04-09T06:36:25.323Z,11.5
2024-04-09T06:37:28.525Z,11.5
2024-04-09T06:38:30.496Z,11.5
2024-04-09T06:39:32.539Z,11.5
2024-04-09T06:40:34.496Z,11.5
2024-04-09T06:41:36.547Z,11.5
2024-04-09T06:42:38.536Z,11.5
2024-04-09T06:43:40.515Z,11.5
2024-04-09T06:44:42.493Z,11.5
2024-04-09T06:45:44.655Z,11.5
2024-04-09T06:46:46.519Z,11.5
2024-04-09T06:47:48.673Z,11.5
2024-04-09T06:48:50.633Z,11.5
2024-04-09T06:49:53.031Z,11.5
2024-04-09T06:50:54.508Z,11.5
2024-04-09T06:51:56.481Z,11.5
2024-04-09T06:52:58.483Z,11.5
2024-04-09T06:54:00.511Z,11.5
2024-04-09T06:55:02.498Z,11.5
2024-04-09T06:56:04.506Z,11.5
2024-04-09T06:57:06.541Z,11.5
2024-04-09T06:58:08.477Z,11.5
2024-04-09T06:59:10.495Z,11.5
2024-04-09T07:00:12.926Z,11.5
2024-04-09T07:01:14.750Z,11.5
2024-04-09T07:02:17.063Z,11.4
2024-04-09T07:03:18.891Z,11.4
2024-04-09T07:04:20.871Z,11.4
2024-04-09T07:05:22.876Z,11.3
2024-04-09T07:06:24.942Z,11.3
2024-04-09T07:07:27.001Z,11.1
2024-04-09T07:08:28.738Z,11.1
2024-04-09T07:09:30.532Z,11.1
2024-04-09T07:10:32.847Z,11
2024-04-09T07:11:34.677Z,11
2024-04-09T07:12:36.476Z,10.9
2024-04-09T07:13:41.206Z,10.9
2024-04-09T07:14:43.530Z,10.9
2024-04-09T07:15:45.315Z,10.8
2024-04-09T07:16:47.326Z,10.8
2024-04-09T07:17:49.467Z,10.8
2024-04-09T07:18:51.152Z,10.7
2024-04-09T07:19:53.177Z,10.7
2024-04-09T07:20:55.264Z,10.6
2024-04-09T07:21:56.861Z,10.6
2024-04-09T07:22:58.858Z,10.5
2024-04-09T07:24:01.417Z,10.5
2024-04-09T07:25:03.451Z,10.5
2024-04-09T07:26:05.202Z,10.5
2024-04-09T07:27:06.989Z,10.5
2024-04-09T07:28:09.653Z,10.4
2024-04-09T07:29:13.486Z,10.4
2024-04-09T07:30:15.929Z,10.4
2024-04-09T07:31:18.027Z,10.4
2024-04-09T07:32:19.466Z,10.3
2024-04-09T07:33:21.514Z,10.3
2024-04-09T07:34:23.444Z,10.3
2024-04-09T07:35:25.437Z,10.2
2024-04-09T07:36:27.466Z,10.2
2024-04-09T07:37:29.489Z,10.2
2024-04-09T07:38:31.744Z,10.1
2024-04-09T07:39:33.455Z,10.1
2024-04-09T07:40:35.816Z,10.1
2024-04-09T07:41:37.460Z,10
2024-04-09T07:42:40.013Z,10
2024-04-09T07:43:41.736Z,10
2024-04-09T07:44:43.728Z,10
2024-04-09T07:45:45.534Z,10
2024-04-09T07:46:47.458Z,10
2024-04-09T07:47:49.617Z,9.9
2024-04-09T07:48:51.909Z,9.8
2024-04-09T07:49:53.428Z,9.8
2024-04-09T07:50:55.474Z,9.8
2024-04-09T07:51:57.796Z,9.7
2024-04-09T07:52:59.583Z,9.6
2024-04-09T07:54:01.969Z,9.6
2024-04-09T07:55:03.658Z,9.6
2024-04-09T07:56:05.475Z,9.5
2024-04-09T07:57:07.771Z,9.5
2024-04-09T07:58:09.766Z,9.4
2024-04-09T07:59:11.752Z,9.4
2024-04-09T08:00:13.762Z,9.4
2024-04-09T08:01:15.842Z,9.3
2024-04-09T08:02:17.742Z,9.2
2024-04-09T08:03:19.818Z,9.2
2024-04-09T08:04:21.908Z,9.2
2024-04-09T08:05:23.864Z,9.2
2024-04-09T08:06:25.921Z,9.2
2024-04-09T08:07:27.796Z,9.2
2024-04-09T08:08:30.918Z,9.2
2024-04-09T08:09:39.802Z,9.4
2024-04-09T08:10:45.119Z,9.4
2024-04-09T08:11:46.008Z,9.3
2024-04-09T08:12:47.822Z,9.2
2024-04-09T08:13:49.913Z,9.2
2024-04-09T08:14:51.756Z,9.2
2024-04-09T08:15:53.741Z,9.1
2024-04-09T08:16:55.716Z,9.1
2024-04-09T08:17:57.836Z,9.1
2024-04-09T08:18:59.882Z,9
2024-04-09T08:20:01.917Z,9
2024-04-09T08:21:03.735Z,9.1
2024-04-09T08:22:05.715Z,9
2024-04-09T08:23:07.715Z,9
2024-04-09T08:24:09.848Z,9
2024-04-09T08:25:11.716Z,9
2024-04-09T08:26:13.715Z,8.9
2024-04-09T08:27:15.740Z,8.9
2024-04-09T08:28:17.709Z,8.8
2024-04-09T08:29:19.732Z,8.8
2024-04-09T08:30:21.830Z,8.8
2024-04-09T08:31:23.703Z,8.8
2024-04-09T08:32:25.750Z,8.8
2024-04-09T08:33:27.791Z,8.8
2024-04-09T08:34:29.940Z,8.8
2024-04-09T08:35:31.698Z,8.8
2024-04-09T08:36:33.706Z,8.8
2024-04-09T08:37:35.780Z,8.8
2024-04-09T08:38:37.731Z,8.7
2024-04-09T08:39:39.700Z,8.6
2024-04-09T08:40:41.803Z,8.6
2024-04-09T08:41:43.687Z,8.6
2024-04-09T08:42:45.980Z,8.5
2024-04-09T08:43:47.902Z,8.5
2024-04-09T08:44:49.775Z,8.5
2024-04-09T08:45:51.788Z,8.5
2024-04-09T08:46:53.721Z,8.4
2024-04-09T08:47:55.852Z,8.4
2024-04-09T08:48:57.762Z,8.4
2024-04-09T08:50:02.260Z,8.3
2024-04-09T08:51:07.542Z,8.3
2024-04-09T08:52:09.487Z,8.3
2024-04-09T08:53:11.434Z,8.3
2024-04-09T08:54:13.708Z,8.3
2024-04-09T08:55:17.202Z,8.3
2024-04-09T08:56:21.969Z,8.3
2024-04-09T08:57:24.159Z,8.3
2024-04-09T08:58:25.969Z,8.3
2024-04-09T08:59:27.961Z,8.3
2024-04-09T09:00:30.083Z,8.3
2024-04-09T09:01:32.044Z,8.3
2024-04-09T09:02:33.989Z,8.3
2024-04-09T09:03:36.098Z,8.3
2024-04-09T09:04:38.180Z,8.3
2024-04-09T09:05:39.968Z,8.3
2024-04-09T09:06:42.014Z,8.4
2024-04-09T09:07:43.946Z,8.4
2024-04-09T09:08:45.947Z,8.3
2024-04-09T09:09:48.216Z,8.3
2024-04-09T09:10:49.959Z,8.3
2024-04-09T09:11:51.970Z,8.3
2024-04-09T09:12:53.978Z,8.3
2024-04-09T09:13:55.938Z,8.3
2024-04-09T09:14:57.934Z,8.4
2024-04-09T09:15:59.968Z,8.3
2024-04-09T09:17:01.972Z,8.4
2024-04-09T09:18:04.012Z,8.4
2024-04-09T09:19:06.026Z,8.5
2024-04-09T09:20:07.942Z,8.5
2024-04-09T09:21:09.991Z,8.5
2024-04-09T09:22:12.271Z,8.4
2024-04-09T09:23:13.925Z,8.4
2024-04-09T09:24:15.973Z,8.4
2024-04-09T09:25:17.956Z,8.4
2024-04-09T09:26:19.949Z,8.4
2024-04-09T09:27:21.935Z,8.4
2024-04-09T09:28:23.978Z,8.4
2024-04-09T09:29:25.920Z,8.4
2024-04-09T09:30:27.978Z,8.4
2024-04-09T09:31:29.939Z,8.4
2024-04-09T09:32:31.942Z,8.3
2024-04-09T09:33:34.756Z,8.3
2024-04-09T09:34:36.181Z,8.3
2024-04-09T09:35:38.170Z,8.3
2024-04-09T09:36:40.471Z,8.3
2024-04-09T09:37:42.141Z,8.3
2024-04-09T09:38:44.137Z,8.2
2024-04-09T09:39:46.231Z,8.3
2024-04-09T09:40:48.135Z,8.3
2024-04-09T09:41:50.134Z,8.3
2024-04-09T09:42:52.154Z,8.3
2024-04-09T09:43:54.133Z,8.3
2024-04-09T09:44:56.154Z,8.3
2024-04-09T09:45:58.126Z,8.3
2024-04-09T09:47:00.153Z,8.3
2024-04-09T09:48:02.191Z,8.3
2024-04-09T09:49:04.294Z,8.3
2024-04-09T09:50:10.759Z,8.3
2024-04-09T09:51:20.264Z,8.3
2024-04-09T09:52:21.789Z,8.4
2024-04-09T09:53:24.639Z,8.4
2024-04-09T09:54:25.995Z,8.4
2024-04-09T09:55:28.542Z,8.4
2024-04-09T09:56:29.955Z,8.4
2024-04-09T09:57:31.949Z,8.3
2024-04-09T09:58:33.967Z,8.4
2024-04-09T09:59:35.925Z,8.4
2024-04-09T10:00:37.992Z,8.4
2024-04-09T10:01:40.016Z,8.4
2024-04-09T10:02:49.673Z,8.4
2024-04-09T10:03:51.919Z,8.4
2024-04-09T10:04:54.065Z,8.4
2024-04-09T10:05:55.800Z,8.5
2024-04-09T10:06:58.564Z,8.5
2024-04-09T10:08:02.817Z,8.4
2024-04-09T10:09:04.817Z,8.4
2024-04-09T10:10:06.780Z,8.4
2024-04-09T10:11:08.794Z,8.4
2024-04-09T10:12:11.419Z,8.4
2024-04-09T10:13:14.938Z,8.4
2024-04-09T10:14:16.901Z,8.3
2024-04-09T10:15:18.910Z,8.3
2024-04-09T10:16:21.495Z,8.3
2024-04-09T10:17:23.906Z,8.2
2024-04-09T10:18:26.302Z,8.2
2024-04-09T10:19:28.162Z,8.2
2024-04-09T10:20:30.090Z,8.2
2024-04-09T10:21:32.310Z,8.3
2024-04-09T10:22:34.115Z,8.3
2024-04-09T10:23:36.522Z,8.4
2024-04-09T10:24:38.125Z,8.5
2024-04-09T10:25:40.100Z,8.5
2024-04-09T10:26:42.114Z,8.5
2024-04-09T10:27:44.162Z,8.5
2024-04-09T10:28:46.768Z,8.4
2024-04-09T10:29:48.222Z,8.4
2024-04-09T10:30:50.697Z,8.3
2024-04-09T10:31:52.341Z,8.3
2024-04-09T10:32:54.719Z,8.3
2024-04-09T10:33:56.177Z,8.4
2024-04-09T10:34:58.588Z,8.4
2024-04-09T10:36:01.510Z,8.5
2024-04-09T10:37:04.758Z,8.5
2024-04-09T10:38:06.796Z,8.5
2024-04-09T10:39:08.938Z,8.5
2024-04-09T10:40:10.656Z,8.6
2024-04-09T10:41:12.344Z,8.6
2024-04-09T10:42:14.313Z,8.6
2024-04-09T10:43:16.301Z,8.6
2024-04-09T10:44:18.305Z,8.6
2024-04-09T10:45:20.382Z,8.6
2024-04-09T10:46:23.085Z,8.7
2024-04-09T10:47:24.591Z,8.7
2024-04-09T10:48:26.577Z,8.8
2024-04-09T10:49:28.317Z,8.8
2024-04-09T10:50:30.328Z,8.8
2024-04-09T10:51:32.317Z,8.8
2024-04-09T10:52:34.288Z,8.8
2024-04-09T10:53:36.307Z,8.8
2024-04-09T10:54:38.395Z,8.8
2024-04-09T10:55:40.316Z,8.7
2024-04-09T10:56:42.287Z,8.7
2024-04-09T10:57:44.419Z,8.7
2024-04-09T10:58:46.282Z,8.6
2024-04-09T10:59:48.323Z,8.7
2024-04-09T11:00:50.356Z,8.6
2024-04-09T11:01:52.387Z,8.6
2024-04-09T11:02:54.278Z,8.6
2024-04-09T11:03:56.336Z,8.7
2024-04-09T11:04:58.369Z,8.8
2024-04-09T11:06:00.810Z,8.8
2024-04-09T11:07:02.537Z,8.8
2024-04-09T11:08:04.273Z,8.8
2024-04-09T11:09:07.583Z,8.8
2024-04-09T11:10:08.863Z,8.9
2024-04-09T11:11:10.905Z,8.9
2024-04-09T11:12:12.867Z,8.9
2024-04-09T11:13:14.867Z,9
2024-04-09T11:14:16.864Z,9
2024-04-09T11:15:18.844Z,9
2024-04-09T11:16:20.907Z,9
2024-04-09T11:17:22.908Z,9
2024-04-09T11:18:24.965Z,9.2
2024-04-09T11:19:26.933Z,9.2
2024-04-09T11:20:28.825Z,9.3
2024-04-09T11:21:30.856Z,9.4
2024-04-09T11:22:32.830Z,9.5
2024-04-09T11:23:34.847Z,9.7
2024-04-09T11:24:36.832Z,9.9
2024-04-09T11:25:38.832Z,10
2024-04-09T11:26:40.912Z,10.2
2024-04-09T11:27:42.885Z,10.4
2024-04-09T11:28:44.845Z,10.5
2024-04-09T11:29:46.810Z,10.6
2024-04-09T11:30:48.876Z,10.6
2024-04-09T11:31:50.845Z,10.6
2024-04-09T11:32:52.876Z,10.5
2024-04-09T11:33:54.877Z,10.6
2024-04-09T11:34:56.898Z,10.6
2024-04-09T11:35:58.823Z,10.5
2024-04-09T11:37:01.337Z,10.4
2024-04-09T11:38:02.875Z,10.3
2024-04-09T11:39:05.330Z,10.4
2024-04-09T11:40:09.231Z,10.4
2024-04-09T11:41:09.716Z,10.4
2024-04-09T11:42:11.734Z,10.5
2024-04-09T11:43:14.480Z,10.4
2024-04-09T11:44:15.702Z,10.4
2024-04-09T11:45:17.700Z,10.5
2024-04-09T11:46:19.702Z,10.5
2024-04-09T11:47:21.754Z,10.5
2024-04-09T11:48:23.760Z,10.6
2024-04-09T11:49:25.891Z,10.6
2024-04-09T11:50:28.177Z,10.6
2024-04-09T11:51:29.790Z,10.7
2024-04-09T11:52:31.719Z,10.8
2024-04-09T11:53:34.400Z,10.8
2024-04-09T11:54:36.774Z,10.9
2024-04-09T11:55:38.452Z,11
2024-04-09T11:56:40.856Z,11
2024-04-09T11:57:42.634Z,11.1
2024-04-09T11:58:44.261Z,11.1
2024-04-09T11:59:46.259Z,11.1
2024-04-09T12:00:48.796Z,11.1
2024-04-09T12:01:50.785Z,11.1
2024-04-09T12:02:52.252Z,11.4
2024-04-09T12:03:54.392Z,11.7
2024-04-09T12:04:56.555Z,11.9
2024-04-09T12:06:00.783Z,12
2024-04-09T12:07:04.046Z,12.2
2024-04-09T12:08:06.035Z,12.5
2024-04-09T12:09:08.586Z,12.8
2024-04-09T12:10:09.986Z,12.6
2024-04-09T12:11:12.034Z,12.2
2024-04-09T12:12:14.445Z,11.9
2024-04-09T12:13:16.006Z,11.8
2024-04-09T12:14:17.991Z,11.7
2024-04-09T12:15:20.584Z,11.5
2024-04-09T12:16:22.635Z,11.3
2024-04-09T12:17:24.399Z,11.1
2024-04-09T12:18:26.117Z,11
2024-04-09T12:19:28.252Z,11.1
2024-04-09T12:20:30.521Z,11.1
2024-04-09T12:21:32.633Z,11.2
2024-04-09T12:22:34.328Z,11.3
2024-04-09T12:23:36.071Z,11.3
2024-04-09T12:24:38.242Z,11.3
2024-04-09T12:25:40.017Z,11.3
2024-04-09T12:26:41.980Z,11.3
2024-04-09T12:27:44.041Z,11.4
2024-04-09T12:28:45.968Z,11.6
2024-04-09T12:29:47.994Z,11.9
2024-04-09T12:30:50.036Z,12.3
2024-04-09T12:31:51.978Z,12.7
2024-04-09T12:32:54.016Z,12.8
2024-04-09T12:33:56.152Z,12.8
2024-04-09T12:34:58.051Z,12.9
2024-04-09T12:36:00.164Z,13.2
2024-04-09T12:37:01.966Z,13.3
2024-04-09T12:38:04.551Z,13.2
2024-04-09T12:39:06.021Z,13.1
2024-04-09T12:40:07.973Z,13
2024-04-09T12:41:10.387Z,13.1
2024-04-09T12:42:11.991Z,13.2
2024-04-09T12:43:14.004Z,13.1
2024-04-09T12:44:15.994Z,12.9
2024-04-09T12:45:17.976Z,12.7
2024-04-09T12:46:20.077Z,12.4
2024-04-09T12:47:22.350Z,12
2024-04-09T12:48:24.088Z,11.9
2024-04-09T12:49:30.794Z,11.7
2024-04-09T12:50:44.755Z,11.7
2024-04-09T12:51:46.904Z,11.7
2024-04-09T12:52:49.008Z,11.7
2024-04-09T12:53:50.783Z,11.9
2024-04-09T12:54:53.086Z,12
2024-04-09T12:55:54.732Z,12
2024-04-09T12:56:56.743Z,12
2024-04-09T12:57:58.814Z,12.1
2024-04-09T12:59:00.757Z,12.1
2024-04-09T13:01:31.789Z,11.9
2024-04-09T13:02:33.959Z,11.8
2024-04-09T13:03:36.071Z,11.9
2024-04-09T13:04:37.799Z,12
2024-04-09T13:05:39.812Z,12
2024-04-09T13:06:41.818Z,12
2024-04-09T13:07:43.839Z,12
2024-04-09T13:08:45.690Z,12.1
2024-04-09T13:09:47.789Z,12.5
2024-04-09T13:10:50.321Z,12.7
2024-04-09T13:11:52.645Z,12.9
2024-04-09T13:12:54.601Z,13
2024-04-09T13:13:56.560Z,13.2
2024-04-09T13:17:51.810Z,13.5
2024-04-09T13:18:53.799Z,13.5
2024-04-09T13:19:55.676Z,13.3
2024-04-09T13:20:58.261Z,13.3
2024-04-09T13:21:59.724Z,13.1
2024-04-09T13:23:03.837Z,12.9
2024-04-09T13:24:08.167Z,12.5
2024-04-09T13:25:09.990Z,12.3
2024-04-09T13:26:12.047Z,12.2
2024-04-09T13:27:14.278Z,12.1
2024-04-09T13:28:16.335Z,12
2024-04-09T13:29:18.493Z,11.9
2024-04-09T13:30:20.191Z,11.8
2024-04-09T13:31:22.041Z,11.7
2024-04-09T13:32:24.403Z,11.6
2024-04-09T13:33:26.036Z,11.5
2024-04-09T13:34:28.022Z,11.5
2024-04-09T13:35:30.254Z,11.5
2024-04-09T13:36:31.997Z,11.5
2024-04-09T13:37:33.994Z,11.5
2024-04-09T13:38:35.993Z,11.5
2024-04-09T13:39:37.994Z,11.5
2024-04-09T13:40:40.113Z,11.5
2024-04-09T13:41:42.015Z,11.5
2024-04-09T13:42:44.105Z,11.5
2024-04-09T13:43:46.001Z,11.5
2024-04-09T13:44:48.014Z,11.5
2024-04-09T13:45:50.084Z,11.5
2024-04-09T13:46:52.732Z,11.5
2024-04-09T13:47:54.671Z,11.5
2024-04-09T13:48:57.204Z,11.4
2024-04-09T13:49:59.042Z,11.4
2024-04-09T13:51:01.009Z,11.5
2024-04-09T13:52:02.996Z,11.4
2024-04-09T13:53:05.248Z,11.4
2024-04-09T13:54:07.600Z,11.5
2024-04-09T13:55:09.814Z,11.4
2024-04-09T13:56:11.656Z,11.4
2024-04-09T13:57:13.579Z,11.3
2024-04-09T13:58:15.566Z,11.3
2024-04-09T13:59:17.596Z,11.3
2024-04-09T14:00:19.560Z,11.3
2024-04-09T14:01:21.824Z,11.3
2024-04-09T14:02:24.468Z,11.1
2024-04-09T14:03:26.600Z,11.1